Time;durP1;ratioP1;P1;durP2;ratioP2;P2;SDS_P1;SDS_P2;PMS_P1;PMS_P2;Temp;Humidity;BMP_temperature;BMP_pressure;BME280_temperature;BME280_humidity;BME280_pressure;Samples;Min_cycle;Max_cycle;Signal;HPM_P1;HPM_P2
2023/11/30 00:01:19;;;;;;;18.90;13.10;;;4.60;99.90;;;;;;5035443;28;20176;-68
2023/11/30 00:03:45;;;;;;;18.70;13.67;;;4.60;99.90;;;;;;5040708;28;20200;-68
2023/11/30 00:06:10;;;;;;;20.43;13.20;;;4.60;99.90;;;;;;5040661;28;20944;-67
2023/11/30 00:08:36;;;;;;;16.73;13.37;;;4.50;99.90;;;;;;5037909;28;20175;-68
2023/11/30 00:11:05;;;;;;;13.90;12.40;;;4.50;99.90;;;;;;5036025;28;20622;-68
2023/11/30 00:13:31;;;;;;;17.70;12.13;;;4.50;99.90;;;;;;5036807;28;20224;-68
2023/11/30 00:15:56;;;;;;;16.90;12.77;;;4.40;99.90;;;;;;5035783;28;20928;-68
2023/11/30 00:18:22;;;;;;;19.30;12.97;;;4.40;99.90;;;;;;5043198;28;20701;-68
2023/11/30 00:20:47;;;;;;;16.37;12.73;;;4.40;99.90;;;;;;5039023;28;20188;-69
2023/11/30 00:23:13;;;;;;;18.20;12.70;;;4.40;99.90;;;;;;5031048;28;20654;-68
2023/11/30 00:25:39;;;;;;;18.20;12.10;;;4.40;99.90;;;;;;5032490;28;20238;-68
2023/11/30 00:28:04;;;;;;;14.33;11.40;;;4.30;99.90;;;;;;5033157;28;20176;-68
2023/11/30 00:30:30;;;;;;;16.80;12.10;;;4.30;99.90;;;;;;5035990;28;20179;-68
2023/11/30 00:32:55;;;;;;;14.50;11.33;;;4.30;99.90;;;;;;5039819;28;20212;-68
2023/11/30 00:35:21;;;;;;;12.50;10.30;;;4.30;99.90;;;;;;5038465;28;20535;-68
2023/11/30 00:37:47;;;;;;;13.60;10.30;;;4.30;99.90;;;;;;5038181;28;20933;-68
2023/11/30 00:40:12;;;;;;;14.00;10.73;;;4.30;99.90;;;;;;5039329;28;20169;-68
2023/11/30 00:42:38;;;;;;;15.40;11.77;;;4.30;99.90;;;;;;5037677;28;20203;-68
2023/11/30 00:45:04;;;;;;;12.93;9.93;;;4.20;99.90;;;;;;5036644;28;20176;-67
2023/11/30 00:47:29;;;;;;;21.83;10.77;;;4.20;99.90;;;;;;5034474;28;20218;-68
2023/11/30 00:49:55;;;;;;;13.57;10.40;;;4.20;99.90;;;;;;5039444;28;20514;-68
2023/11/30 00:52:20;;;;;;;15.17;10.60;;;4.10;99.90;;;;;;5040092;28;20187;-68
2023/11/30 00:54:46;;;;;;;14.93;10.83;;;4.10;99.90;;;;;;5038145;28;20200;-68
2023/11/30 00:57:11;;;;;;;15.13;9.90;;;4.10;99.90;;;;;;5040833;28;20187;-68
2023/11/30 00:59:37;;;;;;;14.80;11.20;;;4.10;99.90;;;;;;5037706;28;20814;-68
2023/11/30 01:02:03;;;;;;;12.77;10.27;;;4.10;99.90;;;;;;5043060;28;20168;-68
2023/11/30 01:04:28;;;;;;;16.10;11.23;;;4.10;99.90;;;;;;5036613;28;20212;-68
2023/11/30 01:06:54;;;;;;;16.43;11.10;;;4.10;99.90;;;;;;5044686;28;20222;-68
2023/11/30 01:09:19;;;;;;;13.23;9.67;;;4.00;99.90;;;;;;5042145;28;20183;-68
2023/11/30 01:11:45;;;;;;;15.33;11.20;;;4.00;99.90;;;;;;5039241;28;20680;-68
2023/11/30 01:14:11;;;;;;;12.23;10.23;;;4.00;99.90;;;;;;5039692;28;20215;-68
2023/11/30 01:16:36;;;;;;;12.67;10.03;;;4.00;99.90;;;;;;5039264;28;20175;-68
2023/11/30 01:19:02;;;;;;;13.63;9.33;;;4.00;99.90;;;;;;5037506;28;20184;-68
2023/11/30 01:21:27;;;;;;;12.67;10.00;;;4.00;99.90;;;;;;5049545;28;20172;-68
2023/11/30 01:23:53;;;;;;;13.50;10.10;;;4.00;99.90;;;;;;5042783;28;20251;-68
2023/11/30 01:26:18;;;;;;;12.23;8.93;;;4.00;99.90;;;;;;5047258;28;20183;-68
2023/11/30 01:28:44;;;;;;;13.80;9.80;;;4.00;99.90;;;;;;5044281;28;20195;-68
2023/11/30 01:31:09;;;;;;;14.80;10.30;;;4.00;99.90;;;;;;5047229;28;20184;-68
2023/11/30 01:33:38;;;;;;;11.43;9.20;;;4.00;99.90;;;;;;5042264;28;20280;-68
2023/11/30 01:36:05;;;;;;;12.93;9.80;;;4.00;99.90;;;;;;5040865;28;20180;-68
2023/11/30 01:38:31;;;;;;;12.30;8.80;;;4.00;99.90;;;;;;5043382;28;20437;-68
2023/11/30 01:40:59;;;;;;;13.47;9.87;;;4.00;99.90;;;;;;5044395;28;20422;-68
2023/11/30 01:43:26;;;;;;;11.33;8.70;;;4.00;99.90;;;;;;5043064;28;20557;-68
2023/11/30 01:45:52;;;;;;;12.00;9.37;;;4.00;99.90;;;;;;5041896;28;20506;-68
2023/11/30 01:48:18;;;;;;;12.10;8.90;;;4.00;99.90;;;;;;5040593;28;20879;-68
2023/11/30 01:50:44;;;;;;;12.63;9.27;;;3.90;99.90;;;;;;5041131;28;20473;-67
2023/11/30 01:53:10;;;;;;;12.33;9.60;;;3.90;99.90;;;;;;5045688;28;20273;-68
2023/11/30 01:55:36;;;;;;;12.97;9.63;;;3.90;99.90;;;;;;5043766;28;20419;-68
2023/11/30 01:58:03;;;;;;;12.50;9.57;;;3.90;99.90;;;;;;5044111;28;20195;-69
2023/11/30 02:00:30;;;;;;;15.63;9.57;;;3.90;99.90;;;;;;5040631;28;20434;-68
2023/11/30 02:02:57;;;;;;;11.73;9.63;;;3.90;99.90;;;;;;5043112;28;20470;-68
2023/11/30 02:05:23;;;;;;;11.20;8.07;;;3.90;99.90;;;;;;5042147;28;20434;-68
2023/11/30 02:07:48;;;;;;;15.00;8.23;;;3.90;99.90;;;;;;5034678;28;20794;-68
2023/11/30 02:10:14;;;;;;;9.57;8.40;;;3.90;99.90;;;;;;5040884;28;20183;-68
2023/11/30 02:12:40;;;;;;;13.73;9.17;;;3.90;99.90;;;;;;5041242;28;20204;-68
2023/11/30 02:15:06;;;;;;;10.03;7.80;;;3.90;99.90;;;;;;5040425;28;20629;-68
2023/11/30 02:17:31;;;;;;;10.37;8.50;;;3.90;99.90;;;;;;5037571;28;20184;-68
2023/11/30 02:19:57;;;;;;;12.60;7.50;;;3.80;99.90;;;;;;5043103;28;20818;-68
2023/11/30 02:22:22;;;;;;;11.13;8.10;;;3.90;99.90;;;;;;5040990;28;20215;-67
2023/11/30 02:24:48;;;;;;;9.23;7.97;;;3.90;99.90;;;;;;5039781;28;20195;-67
2023/11/30 02:27:13;;;;;;;9.97;7.57;;;3.80;99.90;;;;;;5039117;28;20205;-68
2023/11/30 02:29:39;;;;;;;14.00;9.33;;;3.80;99.90;;;;;;5035711;28;20270;-68
2023/11/30 02:32:04;;;;;;;10.43;8.30;;;3.90;99.90;;;;;;5043497;28;20329;-68
2023/11/30 02:34:30;;;;;;;10.60;8.20;;;3.90;99.90;;;;;;5038590;28;20211;-68
2023/11/30 02:36:56;;;;;;;10.70;8.10;;;3.80;99.90;;;;;;5038116;28;20229;-68
2023/11/30 02:39:21;;;;;;;11.83;9.20;;;3.90;99.90;;;;;;5041335;28;20187;-67
2023/11/30 02:41:47;;;;;;;9.80;7.63;;;3.90;99.90;;;;;;5040931;28;20194;-68
2023/11/30 02:44:12;;;;;;;10.77;8.40;;;3.90;99.90;;;;;;5040414;28;20204;-68
2023/11/30 02:46:38;;;;;;;9.43;7.00;;;3.90;99.90;;;;;;5035863;28;20211;-68
2023/11/30 02:49:03;;;;;;;10.40;8.17;;;3.90;99.90;;;;;;5040043;28;20246;-68
2023/11/30 02:51:29;;;;;;;10.67;7.30;;;3.90;99.90;;;;;;5036691;28;20188;-68
2023/11/30 02:53:54;;;;;;;11.43;7.73;;;3.90;99.90;;;;;;5041599;28;20226;-68
2023/11/30 02:56:20;;;;;;;10.83;6.80;;;3.90;99.90;;;;;;5036285;28;20516;-67
2023/11/30 02:58:45;;;;;;;8.10;6.80;;;3.90;99.90;;;;;;5041733;28;20347;-68
2023/11/30 03:01:11;;;;;;;9.80;7.57;;;3.80;99.90;;;;;;5045100;28;20179;-68
2023/11/30 03:03:36;;;;;;;7.90;6.80;;;3.90;99.90;;;;;;5041808;28;20209;-68
2023/11/30 03:06:02;;;;;;;8.80;6.43;;;3.80;99.90;;;;;;5042451;28;20222;-68
2023/11/30 03:08:28;;;;;;;10.47;7.27;;;3.90;99.90;;;;;;5041102;28;20190;-67
2023/11/30 03:10:53;;;;;;;8.50;6.60;;;3.90;99.90;;;;;;5038670;28;20223;-68
2023/11/30 03:13:19;;;;;;;6.83;6.07;;;3.80;99.90;;;;;;5041109;28;20207;-68
2023/11/30 03:15:46;;;;;;;8.03;6.20;;;3.90;99.90;;;;;;5040534;28;20184;-68
2023/11/30 03:18:12;;;;;;;8.80;6.43;;;3.80;99.90;;;;;;5040337;28;20263;-67
2023/11/30 03:20:38;;;;;;;7.63;6.00;;;3.80;99.90;;;;;;5042027;28;20407;-67
2023/11/30 03:23:04;;;;;;;6.97;5.40;;;3.90;99.90;;;;;;5041265;28;20454;-68
2023/11/30 03:25:30;;;;;;;9.70;6.43;;;3.80;99.90;;;;;;5043999;28;20259;-68
2023/11/30 03:27:55;;;;;;;8.10;6.03;;;3.80;99.90;;;;;;5035032;28;20430;-68
2023/11/30 03:30:21;;;;;;;6.80;5.20;;;3.80;99.90;;;;;;5043733;28;20423;-68
2023/11/30 03:32:46;;;;;;;7.10;5.57;;;3.80;99.90;;;;;;5037983;28;20200;-67
2023/11/30 03:35:12;;;;;;;7.17;5.00;;;3.80;99.90;;;;;;5038670;28;20208;-68
2023/11/30 03:37:40;;;;;;;6.13;5.10;;;3.90;99.90;;;;;;5039453;28;20187;-67
2023/11/30 03:40:07;;;;;;;8.03;5.40;;;3.80;99.90;;;;;;5043638;28;20176;-67
2023/11/30 03:42:32;;;;;;;7.60;5.37;;;3.80;99.90;;;;;;5038167;28;20502;-68
2023/11/30 03:44:58;;;;;;;7.33;4.73;;;3.80;99.90;;;;;;5043746;28;20537;-68
2023/11/30 03:47:23;;;;;;;5.23;4.60;;;3.80;99.90;;;;;;5040016;28;20751;-67
2023/11/30 03:49:49;;;;;;;6.73;4.40;;;3.80;99.90;;;;;;5035842;28;20619;-67
2023/11/30 03:52:15;;;;;;;4.63;4.23;;;3.80;99.90;;;;;;5038399;28;20179;-67
2023/11/30 03:54:40;;;;;;;6.80;5.33;;;3.80;99.90;;;;;;5042224;28;20211;-67
2023/11/30 03:57:06;;;;;;;6.53;4.30;;;3.90;99.90;;;;;;5042153;28;20195;-68
2023/11/30 03:59:31;;;;;;;5.60;4.47;;;3.90;99.90;;;;;;5039853;28;20262;-68
2023/11/30 04:01:57;;;;;;;5.10;4.23;;;4.00;99.90;;;;;;5038736;28;20263;-68
2023/11/30 04:04:22;;;;;;;5.53;4.17;;;4.00;99.90;;;;;;5040442;28;20222;-68
2023/11/30 04:06:48;;;;;;;6.20;4.00;;;4.00;99.90;;;;;;5040441;28;20279;-68
2023/11/30 04:09:14;;;;;;;5.27;4.10;;;4.00;99.90;;;;;;5043059;28;20172;-68
2023/11/30 04:11:40;;;;;;;7.20;4.00;;;4.00;99.90;;;;;;5037894;28;20190;-68
2023/11/30 04:14:06;;;;;;;6.37;4.20;;;4.00;99.90;;;;;;5037441;28;20457;-68
2023/11/30 04:16:34;;;;;;;7.17;5.20;;;4.10;99.90;;;;;;5038564;28;20187;-68
2023/11/30 04:19:00;;;;;;;5.70;4.80;;;4.00;99.90;;;;;;5037942;28;20430;-68
2023/11/30 04:21:25;;;;;;;8.60;4.90;;;4.00;99.90;;;;;;5037130;28;20489;-68
2023/11/30 04:23:51;;;;;;;6.70;5.40;;;4.00;99.90;;;;;;5040375;28;20450;-68
2023/11/30 04:26:16;;;;;;;7.77;5.30;;;4.00;99.90;;;;;;5039019;28;20184;-68
2023/11/30 04:28:42;;;;;;;7.37;5.60;;;4.00;99.90;;;;;;5039395;28;20215;-68
2023/11/30 04:31:08;;;;;;;7.20;5.77;;;3.90;99.90;;;;;;5040169;28;20188;-68
2023/11/30 04:33:34;;;;;;;6.90;5.00;;;3.80;99.90;;;;;;5037881;28;20233;-68
2023/11/30 04:35:59;;;;;;;7.97;4.57;;;3.90;99.90;;;;;;5035768;28;20434;-68
2023/11/30 04:38:25;;;;;;;6.63;4.90;;;3.80;99.90;;;;;;5036388;28;20268;-67
2023/11/30 04:40:50;;;;;;;6.50;5.20;;;3.80;99.90;;;;;;5037367;28;20290;-68
2023/11/30 04:43:19;;;;;;;9.83;5.80;;;3.70;99.90;;;;;;5040303;28;20345;-68
2023/11/30 04:45:44;;;;;;;8.10;5.47;;;3.60;99.90;;;;;;5038337;28;20541;-68
2023/11/30 04:48:10;;;;;;;8.37;5.80;;;3.60;99.90;;;;;;5039380;28;20422;-68
2023/11/30 04:50:35;;;;;;;8.13;5.83;;;3.60;99.90;;;;;;5042571;28;20187;-68
2023/11/30 04:53:01;;;;;;;7.50;5.07;;;3.60;99.90;;;;;;5050311;28;20290;-68
2023/11/30 04:55:26;;;;;;;7.20;5.93;;;3.50;99.90;;;;;;5042718;28;20172;-68
2023/11/30 04:57:53;;;;;;;9.63;5.30;;;3.50;99.90;;;;;;5039744;28;20180;-68
2023/11/30 05:00:19;;;;;;;6.70;5.40;;;3.50;99.90;;;;;;5040055;28;20174;-68
2023/11/30 05:02:52;;;;;;;11.23;6.10;;;3.40;99.90;;;;;;5042599;28;20440;-68
2023/11/30 05:05:19;;;;;;;6.43;5.00;;;3.40;99.90;;;;;;5042410;28;20939;-67
2023/11/30 05:07:44;;;;;;;9.50;5.67;;;3.50;99.90;;;;;;5057965;28;20526;-67
2023/11/30 05:10:10;;;;;;;7.20;4.80;;;3.40;99.90;;;;;;5039399;28;20887;-67
2023/11/30 05:12:36;;;;;;;11.33;5.30;;;3.40;99.90;;;;;;5034534;28;20187;-68
2023/11/30 05:15:02;;;;;;;8.00;5.30;;;3.40;99.90;;;;;;5040959;28;20290;-68
2023/11/30 05:17:28;;;;;;;6.37;5.10;;;3.40;99.90;;;;;;5039361;28;20172;-68
2023/11/30 05:19:53;;;;;;;8.43;5.30;;;3.40;99.90;;;;;;5046351;28;20438;-68
2023/11/30 05:22:19;;;;;;;6.30;4.90;;;3.40;99.90;;;;;;5041978;28;20616;-68
2023/11/30 05:24:44;;;;;;;7.17;5.73;;;3.40;99.90;;;;;;5059290;28;20225;-68
2023/11/30 05:27:10;;;;;;;7.77;5.67;;;3.40;99.90;;;;;;5042435;28;20284;-67
2023/11/30 05:29:35;;;;;;;7.93;5.33;;;3.40;99.90;;;;;;5037573;28;20189;-68
2023/11/30 05:32:01;;;;;;;6.30;5.27;;;3.40;99.90;;;;;;5044348;28;20252;-68
2023/11/30 05:34:26;;;;;;;6.03;5.10;;;3.40;99.90;;;;;;5043006;28;20341;-68
2023/11/30 05:36:52;;;;;;;7.70;5.70;;;3.40;99.90;;;;;;5041696;28;20184;-68
2023/11/30 05:39:17;;;;;;;8.30;5.40;;;3.40;99.90;;;;;;5045383;28;20672;-68
2023/11/30 05:41:43;;;;;;;8.27;5.93;;;3.40;99.90;;;;;;5039220;28;20552;-68
2023/11/30 05:44:08;;;;;;;6.33;5.23;;;3.40;99.90;;;;;;5042086;28;20200;-68
2023/11/30 05:46:34;;;;;;;6.83;5.67;;;3.30;99.90;;;;;;5037448;28;20184;-68
2023/11/30 05:49:00;;;;;;;7.97;6.23;;;3.30;99.90;;;;;;5041676;28;20188;-68
2023/11/30 05:51:26;;;;;;;7.57;6.03;;;3.30;99.90;;;;;;5038893;28;20192;-68
2023/11/30 05:53:52;;;;;;;11.47;5.47;;;3.30;99.90;;;;;;5036137;28;20698;-68
2023/11/30 05:56:17;;;;;;;6.73;5.67;;;3.30;99.90;;;;;;5038959;28;20416;-68
2023/11/30 05:58:43;;;;;;;8.40;6.10;;;3.30;99.90;;;;;;5039292;28;20176;-68
2023/11/30 06:01:08;;;;;;;9.43;5.63;;;3.30;99.90;;;;;;5038956;28;20176;-67
2023/11/30 06:03:34;;;;;;;8.80;6.10;;;3.30;99.90;;;;;;5037812;28;20219;-68
2023/11/30 06:06:00;;;;;;;8.53;6.50;;;3.30;99.90;;;;;;5036167;28;20172;-68
2023/11/30 06:08:27;;;;;;;8.30;5.63;;;3.30;99.90;;;;;;5039408;28;20198;-68
2023/11/30 06:10:52;;;;;;;6.27;5.63;;;3.30;99.90;;;;;;5040415;28;20183;-68
2023/11/30 06:13:18;;;;;;;8.67;5.90;;;3.30;99.90;;;;;;5040992;28;20463;-68
2023/11/30 06:15:44;;;;;;;9.60;5.40;;;3.30;99.90;;;;;;5037908;28;20177;-68
2023/11/30 06:18:10;;;;;;;7.43;5.93;;;3.30;99.90;;;;;;5036483;28;20176;-68
2023/11/30 06:20:35;;;;;;;7.03;5.60;;;3.30;99.90;;;;;;5035445;28;20418;-68
2023/11/30 06:23:01;;;;;;;8.40;5.73;;;3.30;99.90;;;;;;5036513;28;21057;-67
2023/11/30 06:25:26;;;;;;;8.37;6.20;;;3.40;99.90;;;;;;5043211;28;20779;-68
2023/11/30 06:27:52;;;;;;;7.30;5.80;;;3.40;99.90;;;;;;5042481;28;20184;-68
2023/11/30 06:30:17;;;;;;;8.80;6.03;;;3.40;99.90;;;;;;5041929;28;20275;-68
2023/11/30 06:32:43;;;;;;;6.17;5.33;;;3.40;99.90;;;;;;5043770;28;20235;-68
2023/11/30 06:35:09;;;;;;;8.03;5.63;;;3.40;99.90;;;;;;5040605;28;20218;-68
2023/11/30 06:37:34;;;;;;;7.90;5.57;;;3.40;99.90;;;;;;5041070;28;20172;-67
2023/11/30 06:40:00;;;;;;;6.90;5.40;;;3.50;99.90;;;;;;5044741;28;20539;-68
2023/11/30 06:42:25;;;;;;;8.90;5.73;;;3.50;99.90;;;;;;5044473;28;20279;-68
2023/11/30 06:44:52;;;;;;;8.30;6.10;;;3.50;99.90;;;;;;5041004;28;20188;-68
2023/11/30 06:47:17;;;;;;;5.70;5.10;;;3.50;99.90;;;;;;5033809;28;20755;-68
2023/11/30 06:49:45;;;;;;;5.80;5.20;;;3.50;99.90;;;;;;5042344;28;20430;-68
2023/11/30 06:52:10;;;;;;;6.27;4.77;;;3.50;99.90;;;;;;5041606;28;20181;-68
2023/11/30 06:54:36;;;;;;;5.53;4.67;;;3.60;99.90;;;;;;5042262;28;20482;-68
2023/11/30 06:57:01;;;;;;;6.87;5.07;;;3.60;99.90;;;;;;5039375;28;20243;-68
2023/11/30 06:59:27;;;;;;;7.20;4.80;;;3.60;99.90;;;;;;5039777;28;20176;-68
2023/11/30 07:01:53;;;;;;;8.87;5.17;;;3.60;99.90;;;;;;5041314;28;20672;-68
2023/11/30 07:04:18;;;;;;;7.47;5.50;;;3.60;99.90;;;;;;5038847;28;20208;-68
2023/11/30 07:06:44;;;;;;;8.97;5.50;;;3.70;99.90;;;;;;5039230;28;20191;-68
2023/11/30 07:09:12;;;;;;;8.07;5.57;;;3.70;99.90;;;;;;5043280;28;20184;-68
2023/11/30 07:11:39;;;;;;;6.37;5.17;;;3.70;99.90;;;;;;5043151;28;20253;-68
2023/11/30 07:14:05;;;;;;;7.57;5.27;;;3.70;99.90;;;;;;5034552;28;21012;-68
2023/11/30 07:16:31;;;;;;;7.00;5.00;;;3.70;99.90;;;;;;5031807;28;20419;-68
2023/11/30 07:18:56;;;;;;;6.90;5.50;;;3.70;99.90;;;;;;5032632;28;20919;-68
2023/11/30 07:21:22;;;;;;;6.20;4.83;;;3.80;99.90;;;;;;5038582;28;20186;-66
2023/11/30 07:23:48;;;;;;;7.17;4.90;;;3.80;99.90;;;;;;5033039;28;20313;-66
2023/11/30 07:26:14;;;;;;;6.40;4.77;;;3.80;99.90;;;;;;5041698;28;20414;-67
2023/11/30 07:28:41;;;;;;;6.43;4.50;;;3.90;99.90;;;;;;5037100;28;20239;-67
2023/11/30 07:31:06;;;;;;;6.90;4.80;;;4.00;99.90;;;;;;5037804;28;20786;-67
2023/11/30 07:33:34;;;;;;;5.37;4.47;;;4.00;99.90;;;;;;5037026;28;20485;-67
2023/11/30 07:36:00;;;;;;;7.53;5.00;;;4.10;99.90;;;;;;5040118;28;20650;-67
2023/11/30 07:38:25;;;;;;;6.00;4.73;;;4.10;99.90;;;;;;5038025;28;20485;-67
2023/11/30 07:40:51;;;;;;;7.30;5.13;;;4.20;99.90;;;;;;5038015;28;20179;-67
2023/11/30 07:43:17;;;;;;;7.17;5.30;;;4.20;99.90;;;;;;5038716;28;20203;-67
2023/11/30 07:45:42;;;;;;;5.63;4.60;;;4.20;99.90;;;;;;5039467;28;20180;-67
2023/11/30 07:48:08;;;;;;;6.47;4.90;;;4.30;99.90;;;;;;5038408;28;20188;-67
2023/11/30 07:50:33;;;;;;;7.00;5.13;;;4.30;99.90;;;;;;5033942;28;20187;-67
2023/11/30 07:53:00;;;;;;;7.60;4.73;;;4.30;99.90;;;;;;5030475;28;20246;-67
2023/11/30 07:55:26;;;;;;;6.70;4.60;;;4.20;99.90;;;;;;5028016;28;20215;-68
2023/11/30 07:57:51;;;;;;;6.70;6.03;;;4.20;99.90;;;;;;5031019;28;20411;-67
2023/11/30 08:00:17;;;;;;;9.17;5.50;;;4.30;99.90;;;;;;5037978;28;20238;-67
2023/11/30 08:02:43;;;;;;;8.30;5.70;;;4.30;99.90;;;;;;5033377;28;20211;-67
2023/11/30 08:05:09;;;;;;;6.10;5.20;;;4.40;99.90;;;;;;5035013;28;20438;-67
2023/11/30 08:07:34;;;;;;;6.90;5.37;;;4.40;99.90;;;;;;5033972;28;20187;-67
2023/11/30 08:10:00;;;;;;;6.53;4.77;;;4.40;99.90;;;;;;5034109;28;20202;-67
2023/11/30 08:12:26;;;;;;;6.80;5.57;;;4.40;99.90;;;;;;5037237;28;20942;-67
2023/11/30 08:14:51;;;;;;;8.17;5.37;;;4.40;99.90;;;;;;5035037;28;20323;-68
2023/11/30 08:17:17;;;;;;;8.17;5.47;;;4.50;99.90;;;;;;5034318;28;20258;-67
2023/11/30 08:19:43;;;;;;;8.30;6.37;;;4.50;99.90;;;;;;5036618;28;20177;-67
2023/11/30 08:22:09;;;;;;;8.77;6.53;;;4.50;99.90;;;;;;5034086;28;20192;-67
2023/11/30 08:24:36;;;;;;;9.80;7.10;;;4.50;99.90;;;;;;5036349;28;20245;-67
2023/11/30 08:27:02;;;;;;;10.13;6.73;;;4.50;99.90;;;;;;5037036;28;21048;-67
2023/11/30 08:29:28;;;;;;;9.30;5.93;;;4.50;99.90;;;;;;5041408;28;20438;-66
2023/11/30 08:31:54;;;;;;;8.30;6.10;;;4.50;99.90;;;;;;5039068;28;20450;-66
2023/11/30 08:34:19;;;;;;;7.63;6.40;;;4.50;99.90;;;;;;5036230;28;21497;-66
2023/11/30 08:36:45;;;;;;;8.83;6.20;;;4.50;99.90;;;;;;5040729;28;20176;-66
2023/11/30 08:39:12;;;;;;;7.30;6.00;;;4.50;99.90;;;;;;5040564;28;20300;-66
2023/11/30 08:41:37;;;;;;;7.97;5.50;;;4.50;99.90;;;;;;5038415;28;21098;-66
2023/11/30 08:44:03;;;;;;;7.87;5.53;;;4.40;99.90;;;;;;5036916;28;20457;-67
2023/11/30 08:46:31;;;;;;;9.30;5.60;;;4.40;99.90;;;;;;5036617;28;20188;-67
2023/11/30 08:48:57;;;;;;;11.53;6.53;;;4.40;99.90;;;;;;5038897;28;20447;-67
2023/11/30 08:51:22;;;;;;;7.33;5.70;;;4.40;99.90;;;;;;5038790;28;20765;-66
2023/11/30 08:53:48;;;;;;;6.20;4.77;;;4.40;99.90;;;;;;5038844;28;20599;-66
2023/11/30 08:56:13;;;;;;;11.40;6.27;;;4.40;99.90;;;;;;5036373;28;20183;-66
2023/11/30 08:58:39;;;;;;;7.90;5.03;;;4.30;99.90;;;;;;5041014;28;20601;-66
2023/11/30 09:01:05;;;;;;;7.57;5.07;;;4.20;99.90;;;;;;5037140;28;20211;-66
2023/11/30 09:03:30;;;;;;;12.90;5.13;;;4.20;99.90;;;;;;5037178;28;20230;-66
2023/11/30 09:05:56;;;;;;;6.43;4.60;;;4.30;99.90;;;;;;5037175;28;20603;-66
2023/11/30 09:08:21;;;;;;;7.27;5.20;;;4.30;99.90;;;;;;5039081;28;20680;-66
2023/11/30 09:10:47;;;;;;;6.43;5.37;;;4.30;99.90;;;;;;5042256;28;20168;-66
2023/11/30 09:13:12;;;;;;;6.50;5.00;;;4.40;99.90;;;;;;5040882;28;20821;-66
2023/11/30 09:15:38;;;;;;;6.43;5.37;;;4.40;99.90;;;;;;5041452;28;20191;-66
2023/11/30 09:18:04;;;;;;;6.33;4.40;;;4.50;99.90;;;;;;5041193;28;20566;-66
2023/11/30 09:20:32;;;;;;;5.60;4.30;;;4.50;99.90;;;;;;5040822;28;20176;-66
2023/11/30 09:22:58;;;;;;;7.40;5.33;;;4.60;99.90;;;;;;5043098;28;20234;-66
2023/11/30 09:25:23;;;;;;;6.87;5.20;;;4.60;99.90;;;;;;5038847;28;20434;-66
2023/11/30 09:27:49;;;;;;;9.00;6.33;;;4.60;99.90;;;;;;5039579;28;20190;-67
2023/11/30 09:30:15;;;;;;;8.70;5.57;;;4.60;99.90;;;;;;5042382;28;20184;-66
2023/11/30 09:32:40;;;;;;;12.17;5.93;;;4.70;99.90;;;;;;5040092;28;20670;-66
2023/11/30 09:35:06;;;;;;;7.57;6.07;;;4.80;99.90;;;;;;5042103;28;20202;-67
2023/11/30 09:37:32;;;;;;;6.23;5.63;;;4.80;99.90;;;;;;5036213;28;20180;-67
2023/11/30 09:39:59;;;;;;;9.30;5.70;;;4.80;99.90;;;;;;5042010;28;20183;-66
2023/11/30 09:42:26;;;;;;;7.73;6.60;;;4.70;99.90;;;;;;5042998;28;20709;-67
2023/11/30 09:44:59;;;;;;;9.30;5.80;;;4.70;99.90;;;;;;5040305;28;20441;-67
2023/11/30 09:47:24;;;;;;;7.77;6.37;;;4.70;99.90;;;;;;5038845;28;21177;-67
2023/11/30 09:49:50;;;;;;;9.87;7.10;;;4.70;99.90;;;;;;5036199;28;20475;-67
2023/11/30 09:52:16;;;;;;;8.00;7.20;;;4.60;99.90;;;;;;5031030;28;20199;-67
2023/11/30 09:54:42;;;;;;;7.30;6.23;;;4.60;99.90;;;;;;5040470;28;20203;-67
2023/11/30 09:57:07;;;;;;;8.27;6.40;;;4.50;99.90;;;;;;5037863;28;20172;-67
2023/11/30 09:59:33;;;;;;;6.47;5.87;;;4.40;99.90;;;;;;5035623;28;20422;-67
2023/11/30 10:01:59;;;;;;;11.60;7.30;;;4.50;99.90;;;;;;5039361;28;20323;-67
2023/11/30 10:04:25;;;;;;;9.93;6.83;;;4.70;99.90;;;;;;5040112;28;20235;-67
2023/11/30 10:06:55;;;;;;;7.80;6.07;;;4.70;99.90;;;;;;5041409;28;20419;-67
2023/11/30 10:09:21;;;;;;;10.57;9.00;;;4.80;99.90;;;;;;5049870;28;20438;-67
2023/11/30 10:11:46;;;;;;;8.53;7.23;;;4.70;99.90;;;;;;5035973;28;20441;-67
2023/11/30 10:14:12;;;;;;;8.20;6.33;;;4.90;99.90;;;;;;5033522;28;20840;-66
2023/11/30 10:16:37;;;;;;;13.53;6.73;;;5.00;99.90;;;;;;5038144;28;20283;-67
2023/11/30 10:19:04;;;;;;;12.43;7.00;;;5.10;99.90;;;;;;5035482;28;20188;-67
2023/11/30 10:21:30;;;;;;;13.97;7.13;;;5.20;99.90;;;;;;5034992;28;20177;-67
2023/11/30 10:23:57;;;;;;;9.53;8.30;;;5.20;99.90;;;;;;5035803;28;20568;-67
2023/11/30 10:26:24;;;;;;;9.37;7.30;;;5.30;99.90;;;;;;5038207;28;20445;-67
2023/11/30 10:28:54;;;;;;;10.57;8.23;;;5.40;99.90;;;;;;5040591;28;20543;-66
2023/11/30 10:31:23;;;;;;;9.67;8.67;;;5.40;99.90;;;;;;5040412;28;20454;-66
2023/11/30 10:34:13;;;;;;;9.50;8.10;;;5.40;99.90;;;;;;5036295;28;20523;-67
2023/11/30 10:36:40;;;;;;;12.83;8.80;;;5.30;99.90;;;;;;5038078;28;20417;-66
2023/11/30 10:39:16;;;;;;;13.53;8.67;;;5.30;99.90;;;;;;5036379;28;20445;-67
2023/11/30 10:41:55;;;;;;;17.00;11.10;;;5.40;99.90;;;;;;5039934;28;20500;-66
2023/11/30 10:44:25;;;;;;;11.97;8.60;;;5.50;99.90;;;;;;5033694;28;20548;-67
2023/11/30 10:46:56;;;;;;;14.10;10.70;;;5.60;99.90;;;;;;5038755;28;20422;-67
2023/11/30 10:49:26;;;;;;;14.40;11.10;;;5.50;99.90;;;;;;5035523;28;20449;-66
2023/11/30 10:51:54;;;;;;;13.77;10.13;;;5.60;99.90;;;;;;5038421;28;20428;-66
2023/11/30 10:54:34;;;;;;;13.93;11.83;;;5.40;99.90;;;;;;5033710;28;20585;-66
2023/11/30 10:57:00;;;;;;;27.07;15.13;;;5.50;99.90;;;;;;5039343;28;20429;-67
2023/11/30 10:59:30;;;;;;;17.10;11.03;;;5.50;99.90;;;;;;5037962;28;20481;-67
2023/11/30 11:01:56;;;;;;;12.83;9.60;;;5.50;99.90;;;;;;5038110;28;20450;-66
2023/11/30 11:04:27;;;;;;;14.33;10.17;;;5.60;99.90;;;;;;5036943;28;20474;-66
2023/11/30 11:07:06;;;;;;;13.90;10.13;;;5.70;99.90;;;;;;5037039;28;20576;-66
2023/11/30 11:10:00;;;;;;;14.03;10.83;;;5.60;99.90;;;;;;5052400;28;20584;-67
2023/11/30 11:12:33;;;;;;;12.87;10.63;;;5.50;99.90;;;;;;5037399;28;20454;-66
2023/11/30 11:15:09;;;;;;;13.47;9.70;;;5.50;99.90;;;;;;5036529;28;20429;-67
2023/11/30 11:17:49;;;;;;;13.80;10.53;;;5.40;99.90;;;;;;5033652;28;20426;-67
2023/11/30 11:20:26;;;;;;;11.53;10.30;;;5.40;99.90;;;;;;5034599;28;20948;-67
2023/11/30 11:23:04;;;;;;;15.87;11.90;;;5.40;99.90;;;;;;5028586;28;20550;-67
2023/11/30 11:25:45;;;;;;;13.23;11.37;;;5.40;99.90;;;;;;5030883;28;20955;-67
2023/11/30 11:28:11;;;;;;;16.57;11.50;;;5.30;99.90;;;;;;5027692;28;20474;-67
2023/11/30 11:30:42;;;;;;;13.20;11.43;;;5.30;99.90;;;;;;5034390;28;20422;-67
2023/11/30 11:33:07;;;;;;;13.97;11.30;;;5.40;99.90;;;;;;5031099;28;20478;-66
2023/11/30 11:35:33;;;;;;;12.40;10.57;;;5.40;99.90;;;;;;5035247;28;21195;-67
2023/11/30 11:37:59;;;;;;;16.07;12.20;;;5.50;99.90;;;;;;5030741;28;20260;-67
2023/11/30 11:40:26;;;;;;;18.57;12.37;;;5.40;99.90;;;;;;5029413;28;20601;-67
2023/11/30 11:42:51;;;;;;;14.40;11.67;;;5.30;99.90;;;;;;5033500;28;20485;-68
2023/11/30 11:45:17;;;;;;;15.10;12.13;;;5.20;99.90;;;;;;5032695;28;20468;-68
2023/11/30 11:47:43;;;;;;;14.50;12.30;;;5.30;99.90;;;;;;5031633;28;20219;-68
2023/11/30 11:50:12;;;;;;;14.40;11.90;;;5.50;99.90;;;;;;5029812;28;20196;-67
2023/11/30 11:52:38;;;;;;;15.53;12.37;;;5.60;99.90;;;;;;5033218;28;20180;-67
2023/11/30 11:55:08;;;;;;;13.83;12.17;;;5.70;99.90;;;;;;5035768;28;20449;-69
2023/11/30 11:57:44;;;;;;;14.93;12.30;;;5.70;99.90;;;;;;5033577;28;20508;-68
2023/11/30 12:00:16;;;;;;;13.93;11.67;;;5.80;99.90;;;;;;5035202;28;20422;-68
2023/11/30 12:02:42;;;;;;;14.70;11.20;;;5.90;99.90;;;;;;5035520;28;20457;-67
2023/11/30 12:05:20;;;;;;;12.67;11.33;;;5.90;99.90;;;;;;5030525;28;20449;-67
2023/11/30 12:07:56;;;;;;;15.57;11.30;;;5.80;99.90;;;;;;5025322;28;20505;-67
2023/11/30 12:10:40;;;;;;;12.67;10.70;;;5.70;99.90;;;;;;5030063;28;20811;-68
2023/11/30 12:13:13;;;;;;;17.00;11.20;;;5.60;99.90;;;;;;5032387;28;20503;-69
2023/11/30 12:15:40;;;;;;;12.50;10.50;;;5.60;99.90;;;;;;5033456;28;20522;-68
2023/11/30 12:18:06;;;;;;;14.80;10.83;;;5.50;99.90;;;;;;5037640;28;20430;-67
2023/11/30 12:20:33;;;;;;;11.93;10.43;;;5.40;99.90;;;;;;5019232;28;20435;-69
2023/11/30 12:22:59;;;;;;;15.10;10.90;;;5.40;99.90;;;;;;5020744;28;20737;-68
2023/11/30 12:25:24;;;;;;;15.13;10.63;;;5.50;99.90;;;;;;5018923;28;21003;-68
2023/11/30 12:27:50;;;;;;;12.57;10.10;;;5.50;99.90;;;;;;5022866;28;20834;-69
2023/11/30 12:30:18;;;;;;;14.30;10.10;;;5.50;99.90;;;;;;5022496;28;20181;-69
2023/11/30 12:32:44;;;;;;;14.17;11.63;;;5.50;99.90;;;;;;5021986;28;20443;-68
2023/11/30 12:35:10;;;;;;;14.37;10.90;;;5.60;99.90;;;;;;5020541;28;20492;-69
2023/11/30 12:37:37;;;;;;;12.47;10.90;;;5.60;99.90;;;;;;5020308;28;20861;-69
2023/11/30 12:40:06;;;;;;;14.17;10.67;;;5.50;99.90;;;;;;5017602;28;20181;-69
2023/11/30 12:42:32;;;;;;;14.43;10.67;;;5.60;99.90;;;;;;5024382;28;20442;-67
2023/11/30 12:44:57;;;;;;;13.90;11.17;;;5.60;99.90;;;;;;5018481;28;20439;-65
2023/11/30 12:47:23;;;;;;;14.90;11.40;;;5.60;99.90;;;;;;5023622;28;20889;-66